Time;durP1;ratioP1;P1;durP2;ratioP2;P2;SDS_P1;SDS_P2;PMS_P1;PMS_P2;Temp;Humidity;BMP_temperature;BMP_pressure;BME280_temperature;BME280_humidity;BME280_pressure;Samples;Min_cycle;Max_cycle;Signal;HPM_P1;HPM_P2
2022/05/02 00:01:48;;;;;;;7.07;6.35;;;6.70;99.90;;;;;;5008312;28;20516;-74
2022/05/02 00:04:14;;;;;;;8.90;7.03;;;6.70;99.90;;;;;;5007767;28;20041;-74
2022/05/02 00:06:40;;;;;;;7.53;6.50;;;6.60;99.90;;;;;;5012285;28;20049;-74
2022/05/02 00:09:05;;;;;;;8.93;7.00;;;6.60;99.90;;;;;;5012486;28;20034;-74
2022/05/02 00:11:31;;;;;;;9.00;6.53;;;6.60;99.90;;;;;;5011604;28;20099;-74
2022/05/02 00:13:57;;;;;;;8.63;6.70;;;6.50;99.90;;;;;;5012120;28;20042;-74
2022/05/02 00:16:23;;;;;;;9.80;7.00;;;6.50;99.90;;;;;;5012232;28;20404;-73
2022/05/02 00:18:48;;;;;;;7.55;6.53;;;6.50;99.90;;;;;;4995894;28;20611;-74
2022/05/02 00:21:14;;;;;;;10.18;6.88;;;6.50;99.90;;;;;;5011651;28;20113;-73
2022/05/02 00:23:39;;;;;;;10.65;7.60;;;6.40;99.90;;;;;;5013127;28;20517;-73
2022/05/02 00:26:05;;;;;;;10.35;6.93;;;6.40;99.90;;;;;;5011774;28;20045;-73
2022/05/02 00:28:30;;;;;;;7.57;6.88;;;6.40;99.90;;;;;;5012004;28;20059;-73
2022/05/02 00:30:56;;;;;;;7.57;6.85;;;6.40;99.90;;;;;;5011733;28;20033;-73
2022/05/02 00:33:22;;;;;;;8.20;7.15;;;6.30;99.90;;;;;;5011681;28;20125;-74
2022/05/02 00:35:47;;;;;;;9.65;7.43;;;6.30;99.90;;;;;;5011833;28;20077;-75
2022/05/02 00:38:13;;;;;;;8.10;7.25;;;6.30;99.90;;;;;;5011557;28;20064;-74
2022/05/02 00:40:39;;;;;;;9.93;7.50;;;6.20;99.90;;;;;;5011547;28;20034;-74
2022/05/02 00:43:05;;;;;;;8.55;7.25;;;6.20;99.90;;;;;;5009201;28;20052;-72
2022/05/02 00:45:35;;;;;;;8.98;7.50;;;6.10;99.90;;;;;;5011253;28;20050;-72
2022/05/02 00:48:01;;;;;;;10.00;7.70;;;6.10;99.90;;;;;;5003691;28;20497;-72
2022/05/02 00:50:41;;;;;;;8.55;7.72;;;6.10;99.90;;;;;;5011066;28;20099;-72
2022/05/02 00:53:18;;;;;;;10.23;7.82;;;6.10;99.90;;;;;;5011283;28;20132;-72
2022/05/02 00:55:45;;;;;;;11.32;8.32;;;6.10;99.90;;;;;;5011395;28;20377;-72
2022/05/02 00:58:13;;;;;;;11.65;8.20;;;6.00;99.90;;;;;;5011141;28;20048;-71
2022/05/02 01:00:39;;;;;;;10.25;8.35;;;6.00;99.90;;;;;;5010984;28;20511;-71
2022/05/02 01:03:07;;;;;;;11.52;8.43;;;5.90;99.90;;;;;;5011463;28;20439;-71
2022/05/02 01:07:08;;;;;;;10.23;8.30;;;5.90;99.90;;;;;;5011033;28;20558;-71
2022/05/02 01:08:31;;;;;;;10.15;7.90;;;5.90;99.90;;;;;;5011183;28;20057;-71
2022/05/02 01:10:57;;;;;;;11.57;9.25;;;5.80;99.90;;;;;;5011158;28;20369;-71
2022/05/02 01:13:52;;;;;;;10.40;8.15;;;5.80;99.90;;;;;;5011025;28;20052;-71
2022/05/02 01:16:27;;;;;;;11.43;9.07;;;5.80;99.90;;;;;;4990684;28;20057;-71
2022/05/02 01:18:56;;;;;;;11.55;8.95;;;5.70;99.90;;;;;;5011006;28;20496;-71
2022/05/02 01:21:24;;;;;;;11.90;9.30;;;5.70;99.90;;;;;;5010942;28;20496;-72
2022/05/02 01:23:52;;;;;;;11.07;8.65;;;5.70;99.90;;;;;;5010852;28;20092;-72
2022/05/02 01:26:18;;;;;;;10.50;9.10;;;5.70;99.90;;;;;;5012071;28;20546;-72
2022/05/02 01:28:49;;;;;;;13.52;9.20;;;5.60;99.90;;;;;;5007191;28;20499;-72
2022/05/02 01:31:16;;;;;;;12.48;9.40;;;5.60;99.90;;;;;;4987178;28;20516;-72
2022/05/02 01:33:43;;;;;;;9.65;8.65;;;5.60;99.90;;;;;;5010321;28;20503;-72
2022/05/02 01:36:09;;;;;;;12.70;8.88;;;5.50;99.90;;;;;;5011004;28;20493;-72
2022/05/02 01:38:35;;;;;;;13.07;8.48;;;5.50;99.90;;;;;;5010962;28;20048;-72
2022/05/02 01:41:03;;;;;;;11.45;9.00;;;5.50;99.90;;;;;;5010438;28;20034;-72
2022/05/02 01:43:30;;;;;;;13.45;9.63;;;5.50;99.90;;;;;;5010090;28;20428;-72
2022/05/02 01:45:57;;;;;;;13.27;9.95;;;5.40;99.90;;;;;;5008870;28;20048;-72
2022/05/02 01:48:23;;;;;;;13.43;9.50;;;5.40;99.90;;;;;;5009789;28;20403;-72
2022/05/02 01:50:49;;;;;;;13.25;9.93;;;5.40;99.90;;;;;;5008481;28;20049;-72
2022/05/02 01:53:14;;;;;;;12.52;10.10;;;5.40;99.90;;;;;;5008489;28;20041;-72
2022/05/02 01:55:40;;;;;;;16.27;9.43;;;5.40;99.90;;;;;;5009647;28;20049;-72
2022/05/02 01:58:06;;;;;;;12.57;9.38;;;5.40;99.90;;;;;;5008346;28;20130;-72
2022/05/02 02:00:32;;;;;;;10.88;9.32;;;5.30;99.90;;;;;;5008503;28;20048;-72
2022/05/02 02:02:57;;;;;;;10.77;9.27;;;5.30;99.90;;;;;;5008885;28;20050;-72
2022/05/02 02:08:07;;;;;;;15.00;9.98;;;5.20;99.90;;;;;;5011286;28;20042;-72
2022/05/02 02:10:33;;;;;;;11.10;9.93;;;5.20;99.90;;;;;;5015389;28;20034;-71
2022/05/02 02:12:59;;;;;;;12.07;10.15;;;5.20;99.90;;;;;;5011700;28;20046;-71
2022/05/02 02:15:24;;;;;;;12.23;10.73;;;5.10;99.90;;;;;;5014188;28;20045;-71
2022/05/02 02:17:50;;;;;;;13.20;10.35;;;5.10;99.90;;;;;;5006233;28;20050;-72
2022/05/02 02:20:15;;;;;;;11.30;10.18;;;5.10;99.90;;;;;;5014218;28;20547;-72
2022/05/02 02:22:42;;;;;;;15.65;11.50;;;5.10;99.90;;;;;;5014148;28;20049;-72
2022/05/02 02:25:08;;;;;;;11.40;10.18;;;5.00;99.90;;;;;;5014055;28;20034;-72
2022/05/02 02:27:33;;;;;;;13.80;11.23;;;5.10;99.90;;;;;;5013954;28;20115;-71
2022/05/02 02:29:59;;;;;;;13.57;11.90;;;5.00;99.90;;;;;;5013945;28;20503;-72
2022/05/02 02:32:26;;;;;;;13.00;11.48;;;5.00;99.90;;;;;;4997669;28;20041;-72
2022/05/02 02:34:53;;;;;;;13.25;11.82;;;5.00;99.90;;;;;;4998048;28;20037;-72
2022/05/02 02:37:18;;;;;;;13.68;11.55;;;4.90;99.90;;;;;;5013781;28;20488;-72
2022/05/02 02:39:45;;;;;;;13.27;10.35;;;4.90;99.90;;;;;;5013592;28;20041;-72
2022/05/02 02:42:11;;;;;;;14.00;11.25;;;4.90;99.90;;;;;;4997488;28;20049;-71
2022/05/02 02:44:37;;;;;;;13.45;11.25;;;4.90;99.90;;;;;;5013712;28;20489;-72
2022/05/02 02:47:02;;;;;;;12.48;11.13;;;4.90;99.90;;;;;;5008112;28;20088;-71
2022/05/02 02:49:28;;;;;;;12.70;9.55;;;4.90;99.90;;;;;;4996622;28;20046;-71
2022/05/02 02:51:54;;;;;;;14.20;11.40;;;4.80;99.90;;;;;;5009402;28;20412;-72
2022/05/02 02:54:20;;;;;;;14.95;12.02;;;4.80;99.90;;;;;;5010966;28;20073;-72
2022/05/02 02:56:46;;;;;;;13.02;10.88;;;4.80;99.90;;;;;;5007020;28;20435;-72
2022/05/02 02:59:11;;;;;;;10.85;9.30;;;4.70;99.90;;;;;;5010944;28;20404;-72
2022/05/02 03:01:38;;;;;;;11.50;10.40;;;4.70;99.90;;;;;;5010961;28;20408;-72
2022/05/02 03:06:01;;;;;;;11.80;10.27;;;4.70;99.90;;;;;;5001836;28;20492;-72
2022/05/02 03:06:49;;;;;;;14.98;12.13;;;4.70;99.90;;;;;;4993583;28;20509;-72
2022/05/02 03:09:15;;;;;;;14.45;12.77;;;4.70;99.90;;;;;;5002080;28;20048;-72
2022/05/02 03:11:41;;;;;;;8.57;7.72;;;4.60;99.90;;;;;;5010714;28;20069;-72
2022/05/02 03:14:07;;;;;;;16.00;9.25;;;4.60;99.90;;;;;;5004925;28;20408;-72
2022/05/02 03:16:32;;;;;;;13.55;11.00;;;4.60;99.90;;;;;;5010599;28;20037;-72
2022/05/02 03:18:58;;;;;;;14.20;11.98;;;4.50;99.90;;;;;;5008592;28;20038;-72
2022/05/02 03:21:24;;;;;;;15.30;13.20;;;4.50;99.90;;;;;;5009627;28;20046;-72
2022/05/02 03:23:49;;;;;;;15.50;12.95;;;4.50;99.90;;;;;;5009341;28;20049;-72
2022/05/02 03:26:21;;;;;;;15.23;12.60;;;4.50;99.90;;;;;;5001148;28;20065;-72
2022/05/02 03:28:48;;;;;;;14.00;12.40;;;4.40;99.90;;;;;;5013369;28;20034;-74
2022/05/02 03:31:15;;;;;;;13.73;12.32;;;4.40;99.90;;;;;;4996235;28;20096;-74
2022/05/02 03:33:41;;;;;;;16.65;13.57;;;4.40;99.90;;;;;;5012839;28;20048;-74
2022/05/02 03:36:07;;;;;;;15.15;12.45;;;4.40;99.90;;;;;;4996497;28;20125;-73
2022/05/02 03:38:32;;;;;;;12.48;11.18;;;4.40;99.90;;;;;;5011095;28;20104;-73
2022/05/02 03:40:58;;;;;;;13.43;11.27;;;4.40;99.90;;;;;;4987980;28;20046;-73
2022/05/02 03:43:24;;;;;;;13.98;12.57;;;4.30;99.90;;;;;;5005980;28;20049;-72
2022/05/02 03:45:49;;;;;;;14.93;12.27;;;4.40;99.90;;;;;;5005973;28;20104;-73
2022/05/02 03:48:15;;;;;;;11.90;10.70;;;4.30;99.90;;;;;;5006834;28;20060;-73
2022/05/02 03:50:41;;;;;;;10.63;9.43;;;4.30;99.90;;;;;;5012275;28;20046;-73
2022/05/02 03:53:08;;;;;;;9.00;8.02;;;4.30;99.90;;;;;;5011748;28;20081;-73
2022/05/02 03:55:34;;;;;;;5.63;5.13;;;4.20;99.90;;;;;;5012772;28;20400;-73
2022/05/02 03:58:02;;;;;;;6.90;4.38;;;4.10;99.90;;;;;;5012422;28;20054;-73
2022/05/02 04:00:28;;;;;;;4.43;3.78;;;4.00;99.90;;;;;;5012284;28;20053;-73
2022/05/02 04:02:53;;;;;;;4.85;4.45;;;3.90;99.90;;;;;;5012234;28;20065;-73
2022/05/02 04:05:19;;;;;;;6.28;5.75;;;3.80;99.90;;;;;;4996228;28;20492;-73
2022/05/02 04:07:44;;;;;;;8.75;7.40;;;3.80;99.90;;;;;;5012114;28;20129;-73
2022/05/02 04:10:10;;;;;;;12.02;10.55;;;3.90;99.90;;;;;;5012183;28;20062;-73
2022/05/02 04:12:39;;;;;;;11.88;10.68;;;3.90;99.90;;;;;;5012199;28;20045;-73
2022/05/02 04:15:11;;;;;;;11.18;8.00;;;4.00;99.90;;;;;;5011947;28;20041;-73
2022/05/02 04:17:37;;;;;;;7.57;6.10;;;4.00;99.90;;;;;;4995894;28;20042;-73
2022/05/02 04:20:04;;;;;;;7.45;6.75;;;4.00;99.90;;;;;;5011965;28;20057;-73
2022/05/02 04:22:30;;;;;;;7.50;6.80;;;4.00;99.90;;;;;;5012208;28;20081;-73
2022/05/02 04:24:55;;;;;;;7.85;6.90;;;4.00;99.90;;;;;;5012247;28;20077;-73
2022/05/02 04:27:22;;;;;;;13.25;7.70;;;4.00;99.90;;;;;;4995536;28;20041;-73
2022/05/02 04:29:47;;;;;;;8.93;7.63;;;4.00;99.90;;;;;;5011496;28;20045;-74
2022/05/02 04:32:13;;;;;;;7.50;6.78;;;4.00;99.90;;;;;;5011196;28;20124;-74
2022/05/02 04:34:39;;;;;;;8.10;7.18;;;4.10;99.90;;;;;;5012007;28;20155;-73
2022/05/02 04:37:04;;;;;;;8.27;7.47;;;4.00;99.90;;;;;;5011800;28;20081;-74
2022/05/02 04:39:30;;;;;;;16.35;13.23;;;4.00;99.90;;;;;;5011703;28;20046;-74
2022/05/02 04:41:56;;;;;;;18.00;14.30;;;4.00;99.90;;;;;;5011787;28;20048;-73
2022/05/02 04:44:21;;;;;;;16.83;14.63;;;4.10;99.90;;;;;;5011676;28;20046;-73
2022/05/02 04:46:47;;;;;;;20.10;15.23;;;4.10;99.90;;;;;;5011506;28;20046;-73
2022/05/02 04:49:13;;;;;;;20.13;15.95;;;4.10;99.90;;;;;;5011704;28;20141;-73
2022/05/02 04:51:38;;;;;;;18.40;15.63;;;4.20;99.90;;;;;;5011095;28;20042;-73
2022/05/02 04:54:04;;;;;;;19.83;15.68;;;4.20;99.90;;;;;;5011696;28;20049;-73
2022/05/02 04:56:29;;;;;;;17.67;15.60;;;4.20;99.90;;;;;;5011146;28;20037;-73
2022/05/02 04:58:55;;;;;;;19.63;15.27;;;4.30;99.90;;;;;;5011344;28;20448;-73
2022/05/02 05:01:21;;;;;;;17.15;14.32;;;4.30;99.90;;;;;;5011271;28;20041;-73
2022/05/02 05:03:46;;;;;;;18.75;13.90;;;4.40;99.90;;;;;;5011837;28;20056;-73
2022/05/02 05:06:12;;;;;;;16.95;13.43;;;4.40;99.90;;;;;;5011112;28;20079;-74
2022/05/02 05:08:39;;;;;;;13.45;11.98;;;4.40;99.90;;;;;;5011356;28;20050;-74
2022/05/02 05:11:46;;;;;;;17.60;13.98;;;4.40;99.90;;;;;;5011193;28;20049;-73
2022/05/02 05:17:37;;;;;;;19.88;15.82;;;4.60;99.90;;;;;;5011221;28;20137;-73
2022/05/02 05:20:08;;;;;;;15.32;13.15;;;4.60;99.90;;;;;;5010802;28;20136;-73
2022/05/02 05:23:15;;;;;;;18.33;15.23;;;4.70;99.90;;;;;;5011000;28;20097;-73
2022/05/02 05:26:04;;;;;;;23.75;16.05;;;4.80;99.90;;;;;;5011190;28;20034;-73
2022/05/02 05:28:44;;;;;;;18.42;16.05;;;4.80;99.90;;;;;;5011128;28;20034;-73
2022/05/02 05:31:19;;;;;;;18.40;15.70;;;4.90;99.90;;;;;;5010495;28;20054;-73
2022/05/02 05:33:57;;;;;;;22.33;17.75;;;5.00;99.90;;;;;;5011051;28;20038;-73
2022/05/02 05:36:56;;;;;;;20.67;17.13;;;5.00;99.90;;;;;;5008015;28;20080;-73
2022/05/02 05:39:49;;;;;;;19.55;17.45;;;5.10;99.90;;;;;;5009023;28;20041;-73
2022/05/02 05:42:26;;;;;;;24.98;17.65;;;5.20;99.90;;;;;;5008986;28;20048;-73
2022/05/02 05:45:04;;;;;;;20.20;16.98;;;5.20;99.90;;;;;;5012735;28;20041;-73
2022/05/02 05:47:48;;;;;;;21.83;16.88;;;5.30;99.90;;;;;;5012205;28;20075;-73
2022/05/02 05:50:22;;;;;;;21.42;16.38;;;5.40;99.90;;;;;;5009880;28;20049;-73
2022/05/02 05:53:02;;;;;;;23.17;17.13;;;5.50;99.90;;;;;;4995899;28;20496;-73
2022/05/02 05:55:43;;;;;;;19.42;17.00;;;5.60;99.90;;;;;;5014392;28;20042;-73
2022/05/02 05:58:31;;;;;;;23.17;16.83;;;5.80;99.90;;;;;;5013779;28;20442;-73
2022/05/02 06:01:42;;;;;;;21.25;18.10;;;5.90;99.90;;;;;;4981781;28;20057;-73
2022/05/02 06:04:10;;;;;;;21.40;17.38;;;6.00;99.90;;;;;;5013462;28;20096;-73
2022/05/02 06:06:36;;;;;;;22.15;17.27;;;6.10;99.90;;;;;;5014156;28;20042;-74
2022/05/02 06:09:05;;;;;;;23.83;17.45;;;6.20;99.90;;;;;;5014162;28;20041;-74
2022/05/02 06:11:33;;;;;;;19.65;17.05;;;6.30;99.90;;;;;;5021686;28;20049;-74
2022/05/02 06:14:01;;;;;;;19.92;16.90;;;6.40;99.90;;;;;;5038800;28;20052;-74
2022/05/02 06:19:25;;;;;;;20.13;17.25;;;6.60;99.90;;;;;;5014309;28;20049;-74
2022/05/02 06:21:53;;;;;;;22.05;17.63;;;6.80;99.90;;;;;;5014427;28;20077;-74
2022/05/02 06:24:19;;;;;;;20.15;17.33;;;6.90;99.90;;;;;;5014133;28;20403;-74
2022/05/02 06:26:46;;;;;;;18.90;15.73;;;7.00;99.90;;;;;;5038615;28;20073;-74
2022/05/02 06:29:12;;;;;;;20.40;16.30;;;7.10;99.90;;;;;;5038608;28;20149;-74
2022/05/02 06:31:45;;;;;;;20.13;16.73;;;7.20;99.90;;;;;;5013075;28;20524;-74
2022/05/02 06:34:12;;;;;;;19.63;15.52;;;7.40;99.90;;;;;;5011151;28;20038;-74
2022/05/02 06:36:50;;;;;;;18.98;16.10;;;7.50;99.90;;;;;;4997388;28;20033;-74
2022/05/02 06:40:00;;;;;;;18.00;15.18;;;7.70;99.90;;;;;;4995250;28;20117;-73
2022/05/02 06:42:53;;;;;;;22.75;14.68;;;7.80;99.90;;;;;;4996460;28;20408;-73
2022/05/02 06:45:41;;;;;;;19.50;15.40;;;8.00;99.90;;;;;;5012031;28;20172;-73
2022/05/02 06:48:35;;;;;;;18.40;14.35;;;8.10;99.90;;;;;;5012656;28;20060;-73
2022/05/02 06:51:09;;;;;;;16.83;13.07;;;8.30;99.90;;;;;;5011942;28;20054;-73
2022/05/02 06:53:56;;;;;;;14.70;13.15;;;8.50;99.90;;;;;;5010377;28;20044;-73
2022/05/02 06:56:37;;;;;;;18.23;14.80;;;8.70;99.90;;;;;;5012039;28;20074;-73
2022/05/02 06:59:13;;;;;;;13.82;12.30;;;8.80;99.90;;;;;;5012119;28;20038;-73
2022/05/02 07:01:49;;;;;;;17.38;13.70;;;9.00;99.90;;;;;;5013260;28;20049;-73
2022/05/02 07:04:25;;;;;;;17.77;13.63;;;9.20;99.90;;;;;;4996683;28;20049;-73
2022/05/02 07:07:16;;;;;;;16.98;13.15;;;9.40;99.90;;;;;;5012416;28;20124;-73
2022/05/02 07:09:47;;;;;;;16.25;13.55;;;9.60;99.90;;;;;;5012743;28;20050;-73
2022/05/02 07:12:22;;;;;;;15.40;12.35;;;9.70;99.90;;;;;;5029731;28;20045;-73
2022/05/02 07:15:01;;;;;;;16.38;13.02;;;9.90;99.90;;;;;;5046510;28;20136;-73
2022/05/02 07:17:44;;;;;;;21.23;12.55;;;10.00;99.90;;;;;;5029651;28;20636;-73
2022/05/02 07:20:24;;;;;;;17.23;12.75;;;10.20;99.90;;;;;;5012963;28;20038;-73
2022/05/02 07:23:11;;;;;;;13.13;11.73;;;10.40;99.90;;;;;;5029615;28;20057;-73
2022/05/02 07:25:43;;;;;;;14.65;11.55;;;10.60;99.90;;;;;;5045276;28;20045;-73
2022/05/02 07:28:34;;;;;;;16.27;11.73;;;10.70;99.90;;;;;;4996054;28;20566;-73
2022/05/02 07:31:01;;;;;;;18.83;11.60;;;10.90;99.90;;;;;;5012050;28;20052;-73
2022/05/02 07:33:34;;;;;;;13.18;11.82;;;11.00;99.90;;;;;;5012805;28;20519;-73
2022/05/02 07:36:03;;;;;;;17.20;11.40;;;11.20;99.90;;;;;;5013200;28;20496;-73
2022/05/02 07:38:31;;;;;;;14.35;11.45;;;11.30;99.90;;;;;;5012936;28;20497;-73
2022/05/02 07:43:54;;;;;;;14.40;10.88;;;11.60;99.90;;;;;;5036094;28;20404;-73
2022/05/02 07:46:25;;;;;;;12.07;10.48;;;11.80;99.90;;;;;;5010115;28;20040;-73
2022/05/02 07:48:53;;;;;;;13.80;10.65;;;12.00;99.90;;;;;;5012460;28;20413;-74
2022/05/02 07:51:19;;;;;;;11.73;9.68;;;12.20;99.90;;;;;;5009096;28;20045;-73
2022/05/02 07:53:46;;;;;;;12.32;9.65;;;12.40;99.90;;;;;;5012174;28;20512;-73
2022/05/02 07:56:13;;;;;;;11.95;10.23;;;12.60;99.90;;;;;;5006644;28;20121;-73
2022/05/02 07:58:45;;;;;;;12.00;9.68;;;12.70;99.90;;;;;;5002305;28;20397;-73
2022/05/02 08:01:16;;;;;;;9.77;8.82;;;12.90;99.90;;;;;;5002243;28;20439;-73
2022/05/02 08:03:41;;;;;;;10.68;9.50;;;13.10;99.90;;;;;;4985991;28;20408;-73
2022/05/02 08:06:31;;;;;;;12.50;9.23;;;13.20;99.90;;;;;;4999777;28;20030;-74
2022/05/02 08:09:31;;;;;;;12.82;8.82;;;13.40;99.90;;;;;;5002507;28;20396;-73
2022/05/02 08:12:28;;;;;;;10.20;8.20;;;13.50;99.90;;;;;;5001621;28;20109;-74
2022/05/02 08:15:24;;;;;;;10.40;8.20;;;13.70;99.90;;;;;;5003820;28;20396;-73
2022/05/02 08:18:15;;;;;;;10.82;7.40;;;13.80;99.90;;;;;;5001736;28;20046;-73
2022/05/02 08:20:51;;;;;;;10.40;7.50;;;14.00;99.90;;;;;;4977745;28;20125;-74
2022/05/02 08:29:22;;;;;;;8.63;6.63;;;14.40;99.90;;;;;;5001810;28;20408;-73
2022/05/02 08:31:53;;;;;;;10.38;7.57;;;14.50;99.90;;;;;;4999928;28;20405;-73
2022/05/02 08:34:22;;;;;;;9.60;8.20;;;14.60;99.90;;;;;;5000103;28;20439;-74
2022/05/02 08:37:04;;;;;;;8.50;7.28;;;14.70;98.50;;;;;;5001754;28;20221;-74
2022/05/02 08:40:04;;;;;;;11.13;7.35;;;14.90;94.90;;;;;;5003685;28;20041;-75
2022/05/02 08:42:32;;;;;;;10.77;7.47;;;15.10;92.10;;;;;;4999010;28;20050;-75
2022/05/02 08:45:23;;;;;;;9.63;6.95;;;15.20;91.40;;;;;;5001269;28;20043;-75
2022/05/02 08:48:17;;;;;;;8.65;7.13;;;15.30;82.50;;;;;;5001278;28;20412;-74
2022/05/02 08:51:04;;;;;;;8.15;6.57;;;15.40;87.50;;;;;;5001393;28;20065;-74
2022/05/02 08:53:50;;;;;;;9.35;6.40;;;15.40;83.50;;;;;;5001332;28;20076;-75
2022/05/02 08:56:42;;;;;;;9.45;6.93;;;15.60;77.40;;;;;;5005872;28;20049;-74
2022/05/02 08:59:36;;;;;;;7.82;6.35;;;15.70;78.70;;;;;;5009310;28;20167;-74
2022/05/02 09:02:14;;;;;;;9.43;6.03;;;15.90;77.20;;;;;;5011621;28;20042;-74
2022/05/02 09:04:54;;;;;;;9.55;5.63;;;16.00;73.40;;;;;;5044323;28;20100;-74
2022/05/02 09:07:43;;;;;;;8.70;5.63;;;16.00;70.60;;;;;;5044172;28;20046;-74
2022/05/02 09:10:30;;;;;;;7.20;5.82;;;15.90;66.10;;;;;;5043787;28;20042;-74
2022/05/02 09:13:40;;;;;;;9.13;5.80;;;16.00;66.60;;;;;;5011073;28;20420;-74
2022/05/02 09:16:09;;;;;;;7.07;5.75;;;16.20;65.80;;;;;;5044221;28;20037;-74
2022/05/02 09:18:56;;;;;;;6.95;4.60;;;16.40;68.60;;;;;;5044095;28;20398;-74
2022/05/02 09:21:58;;;;;;;9.70;4.65;;;16.50;69.70;;;;;;5044055;28;20411;-74
2022/05/02 09:25:04;;;;;;;7.20;5.85;;;16.70;59.90;;;;;;5044181;28;20178;-74
2022/05/02 09:27:50;;;;;;;7.53;5.78;;;16.90;63.10;;;;;;5010820;28;20488;-71
2022/05/02 09:30:35;;;;;;;9.85;6.07;;;17.20;64.80;;;;;;5043730;28;20492;-71
2022/05/02 09:33:18;;;;;;;8.80;6.38;;;17.30;63.50;;;;;;5036510;28;20125;-71
2022/05/02 09:35:54;;;;;;;11.60;6.10;;;17.50;64.30;;;;;;5015418;28;20033;-71
2022/05/02 09:38:25;;;;;;;7.20;5.70;;;17.50;64.40;;;;;;5009496;28;20042;-72
2022/05/02 09:41:15;;;;;;;6.38;5.35;;;17.70;64.20;;;;;;5008199;28;20042;-72
2022/05/02 09:50:07;;;;;;;5.75;5.20;;;18.10;57.60;;;;;;5008637;28;20050;-73
2022/05/02 09:53:01;;;;;;;6.47;4.88;;;18.10;55.90;;;;;;5041714;28;20514;-72
2022/05/02 09:58:42;;;;;;;5.80;4.55;;;18.40;55.20;;;;;;5008229;28;20112;-73
2022/05/02 10:01:08;;;;;;;8.82;5.82;;;18.70;54.90;;;;;;5010142;28;20042;-73
2022/05/02 10:03:37;;;;;;;7.78;4.72;;;18.70;52.70;;;;;;5010262;28;20060;-73
2022/05/02 10:06:07;;;;;;;6.20;4.85;;;18.60;52.70;;;;;;5035260;28;20518;-73
2022/05/02 10:08:48;;;;;;;6.72;5.13;;;18.80;54.40;;;;;;5010537;28;20514;-72
2022/05/02 10:11:44;;;;;;;6.88;4.57;;;19.00;50.70;;;;;;5043409;28;20515;-72
2022/05/02 10:14:29;;;;;;;6.88;4.95;;;19.00;50.60;;;;;;4991252;28;20408;-72
2022/05/02 10:17:04;;;;;;;7.38;5.13;;;19.20;53.60;;;;;;4990865;28;20125;-72
2022/05/02 10:19:42;;;;;;;9.13;5.93;;;19.40;52.30;;;;;;4990904;28;20447;-72
2022/05/02 10:22:30;;;;;;;10.73;5.25;;;19.60;52.20;;;;;;4990908;28;20043;-72
2022/05/02 10:25:01;;;;;;;6.93;5.60;;;19.70;51.80;;;;;;4990799;28;20523;-72
2022/05/02 10:27:43;;;;;;;7.55;5.18;;;19.80;51.80;;;;;;4990738;28;20523;-73
2022/05/02 10:30:12;;;;;;;6.90;5.17;;;20.00;52.10;;;;;;4992983;28;20097;-72
2022/05/02 10:32:49;;;;;;;7.70;5.50;;;20.10;53.80;;;;;;4994317;28;20093;-72
2022/05/02 10:35:17;;;;;;;7.55;5.15;;;19.90;50.80;;;;;;4994601;28;20038;-72
2022/05/02 10:37:58;;;;;;;5.60;5.00;;;20.10;50.00;;;;;;4994318;28;20572;-72
2022/05/02 10:40:41;;;;;;;6.50;4.47;;;20.10;51.20;;;;;;4994039;28;20035;-72
2022/05/02 10:43:07;;;;;;;;;;;20.10;50.30;;;;;;4994894;28;20489;-72
2022/05/02 10:45:38;;;;;;;5.57;4.95;;;20.40;47.20;;;;;;4994428;28;19969;-73
2022/05/02 10:48:19;;;;;;;6.90;5.32;;;20.50;47.80;;;;;;4994270;28;20432;-73
2022/05/02 10:51:03;;;;;;;8.63;5.03;;;20.70;45.60;;;;;;4993834;28;20501;-72
2022/05/02 10:53:49;;;;;;;9.23;5.68;;;20.60;48.00;;;;;;4994032;28;20046;-72
2022/05/02 10:56:22;;;;;;;7.35;5.10;;;20.50;51.10;;;;;;4993052;28;20092;-72
2022/05/02 10:58:48;;;;;;;9.98;5.40;;;20.40;49.60;;;;;;4994115;28;20085;-73
2022/05/02 11:02:05;;;;;;;7.60;4.90;;;20.50;47.80;;;;;;4993526;28;20493;-72
2022/05/02 11:05:05;;;;;;;5.60;4.45;;;20.70;47.20;;;;;;5045956;23;20037;-72
2022/05/02 11:08:02;;;;;;;7.72;4.75;;;20.70;46.00;;;;;;5015481;28;20037;-72
2022/05/02 11:10:31;;;;;;;7.50;4.40;;;20.80;49.40;;;;;;5016311;28;20046;-71
2022/05/02 11:13:20;;;;;;;5.95;4.30;;;20.90;46.70;;;;;;5016059;28;20487;-71
2022/05/02 11:15:49;;;;;;;5.13;3.90;;;21.20;46.90;;;;;;4996760;28;20076;-71
2022/05/02 11:21:53;;;;;;;6.22;4.05;;;21.60;44.70;;;;;;4994292;28;20061;-72
2022/05/02 11:24:59;;;;;;;3.97;3.58;;;21.60;46.00;;;;;;4996659;28;20034;-71
2022/05/02 11:27:57;;;;;;;3.88;3.47;;;21.50;41.50;;;;;;4996546;28;20141;-71
2022/05/02 11:30:27;;;;;;;5.65;3.90;;;21.40;42.50;;;;;;5014020;28;20046;-71
2022/05/02 11:33:09;;;;;;;4.38;3.90;;;21.60;44.50;;;;;;5014316;28;20130;-72
2022/05/02 11:35:36;;;;;;;7.43;4.00;;;21.70;42.60;;;;;;5013981;28;20041;-72
2022/05/02 11:38:32;;;;;;;7.32;4.50;;;21.60;43.50;;;;;;4995961;28;20145;-72
2022/05/02 11:41:10;;;;;;;6.60;3.67;;;21.50;43.00;;;;;;4992833;28;20038;-71
2022/05/02 11:43:36;;;;;;;4.30;3.88;;;21.70;44.80;;;;;;4995787;28;20137;-71
2022/05/02 11:46:23;;;;;;;4.72;4.05;;;22.00;46.90;;;;;;4993649;28;20046;-71
2022/05/02 11:49:13;;;;;;;5.65;4.00;;;22.40;43.20;;;;;;4996177;28;20474;-72
2022/05/02 11:51:45;;;;;;;10.13;3.90;;;22.50;41.60;;;;;;4995377;28;20140;-72
2022/05/02 11:54:35;;;;;;;4.50;4.05;;;22.30;42.60;;;;;;4995790;28;20038;-72
2022/05/02 11:57:14;;;;;;;7.43;4.20;;;22.40;43.20;;;;;;5010646;28;20037;-71
2022/05/02 12:00:03;;;;;;;5.15;3.78;;;22.70;41.50;;;;;;4995879;28;20045;-72
2022/05/02 12:02:42;;;;;;;5.07;3.95;;;22.90;43.30;;;;;;4996363;28;20050;-71
2022/05/02 12:05:24;;;;;;;6.82;3.95;;;22.90;42.70;;;;;;5012138;28;20052;-71
2022/05/02 12:08:03;;;;;;;5.32;3.70;;;22.60;42.80;;;;;;4996245;28;20100;-72
2022/05/02 12:10:41;;;;;;;5.32;4.30;;;22.10;43.10;;;;;;4995764;28;20050;-71
2022/05/02 12:13:12;;;;;;;7.47;4.20;;;21.80;42.70;;;;;;4995330;28;20038;-71
2022/05/02 12:15:58;;;;;;;4.63;3.85;;;21.80;44.20;;;;;;4993229;28;20121;-72
2022/05/02 12:18:43;;;;;;;4.35;3.95;;;21.70;42.90;;;;;;5012806;28;20048;-71
2022/05/02 12:21:36;;;;;;;7.10;3.92;;;21.90;43.50;;;;;;4994970;28;20030;-72
2022/05/02 12:24:03;;;;;;;7.03;3.95;;;22.30;44.00;;;;;;4988712;28;20129;-71
2022/05/02 12:26:31;;;;;;;7.05;4.05;;;22.70;44.10;;;;;;4995133;28;20033;-72
2022/05/02 12:29:00;;;;;;;9.63;4.05;;;23.00;44.40;;;;;;4992674;28;20153;-72
2022/05/02 12:31:29;;;;;;;5.60;4.20;;;23.10;45.10;;;;;;4994823;28;20048;-72
2022/05/02 12:33:58;;;;;;;9.77;3.90;;;23.00;44.80;;;;;;4992264;28;20403;-72
2022/05/02 12:36:33;;;;;;;6.10;3.95;;;22.70;45.20;;;;;;4994958;28;20038;-72
2022/05/02 12:39:12;;;;;;;7.70;3.65;;;22.40;44.40;;;;;;4992916;28;20095;-72
2022/05/02 12:41:50;;;;;;;4.30;3.70;;;22.50;43.90;;;;;;4976125;28;20045;-72
2022/05/02 12:44:17;;;;;;;6.60;3.90;;;22.70;42.50;;;;;;5012425;28;20033;-72
2022/05/02 12:46:48;;;;;;;5.13;3.70;;;23.10;43.00;;;;;;4994824;28;20037;-73
2022/05/02 12:49:41;;;;;;;4.70;3.67;;;23.60;41.30;;;;;;5012421;28;20069;-72
2022/05/02 12:52:07;;;;;;;;;;;23.70;41.10;;;;;;4993674;28;20049;-72
2022/05/02 12:54:33;;;;;;;5.50;3.65;;;23.50;42.00;;;;;;4995046;28;19968;-72
2022/05/02 13:02:52;;;;;;;6.32;4.32;;;22.10;42.60;;;;;;5010870;28;20095;-72
2022/05/02 13:05:31;;;;;;;6.03;3.90;;;21.80;44.00;;;;;;4994347;28;20038;-72
2022/05/02 13:08:06;;;;;;;4.65;3.65;;;21.90;44.20;;;;;;4994477;28;20056;-72
2022/05/02 13:10:32;;;;;;;6.90;3.83;;;22.20;43.80;;;;;;4994260;28;20045;-72
2022/05/02 13:13:05;;;;;;;4.65;3.78;;;22.50;43.20;;;;;;5012182;28;20491;-72
2022/05/02 13:15:39;;;;;;;7.28;3.70;;;22.60;44.70;;;;;;4994607;28;20431;-72
2022/05/02 13:18:06;;;;;;;5.60;3.25;;;22.90;43.40;;;;;;4994366;28;20124;-72
2022/05/02 13:20:33;;;;;;;4.65;3.60;;;23.20;44.80;;;;;;4994223;28;20080;-72
2022/05/02 13:23:06;;;;;;;4.70;3.83;;;23.40;43.70;;;;;;4994585;28;20042;-72
2022/05/02 13:26:03;;;;;;;4.60;3.20;;;23.40;39.90;;;;;;4994300;28;20030;-72
2022/05/02 13:28:39;;;;;;;7.35;3.30;;;23.20;40.90;;;;;;4989675;28;20050;-72
2022/05/02 13:31:20;;;;;;;4.90;3.55;;;23.30;40.90;;;;;;5009017;28;20030;-72
2022/05/02 13:33:51;;;;;;;4.82;3.50;;;23.40;37.60;;;;;;4993795;28;20042;-72
2022/05/02 13:36:17;;;;;;;4.10;3.30;;;23.60;39.60;;;;;;4993049;28;20034;-72
2022/05/02 13:39:02;;;;;;;7.45;3.30;;;23.60;40.20;;;;;;5000309;28;20111;-72
2022/05/02 13:41:49;;;;;;;4.47;3.20;;;23.80;41.20;;;;;;4989942;28;20033;-72
2022/05/02 13:44:33;;;;;;;6.00;3.78;;;24.10;39.80;;;;;;5008864;28;20046;-72
2022/05/02 13:47:09;;;;;;;5.88;3.90;;;24.10;39.00;;;;;;4992262;28;20060;-72
2022/05/02 13:49:42;;;;;;;5.25;3.80;;;23.90;36.70;;;;;;4992162;28;20123;-72
2022/05/02 13:52:15;;;;;;;5.18;3.15;;;23.70;38.70;;;;;;4976839;28;20030;-72
2022/05/02 13:54:52;;;;;;;6.95;3.50;;;23.80;38.50;;;;;;5009741;28;20037;-73
2022/05/02 13:57:31;;;;;;;5.32;3.28;;;23.80;37.80;;;;;;4993943;28;20054;-72